Time;durP1;ratioP1;P1;durP2;ratioP2;P2;SDS_P1;SDS_P2;PMS_P1;PMS_P2;Temp;Humidity;BMP_temperature;BMP_pressure;BME280_temperature;BME280_humidity;BME280_pressure;Samples;Min_cycle;Max_cycle;Signal;HPM_P1;HPM_P2
2024/01/19 00:00:08;;;;;;;16.00;10.47;;;;;;;-1.72;100.00;101284.06;5010355;28;20060;-64
2024/01/19 00:02:33;;;;;;;20.27;11.00;;;;;;;-1.72;100.00;101292.75;5011309;28;20084;-64
2024/01/19 00:05:01;;;;;;;16.30;9.87;;;;;;;-1.80;100.00;101278.03;5011753;28;20025;-64
2024/01/19 00:07:26;;;;;;;15.80;10.50;;;;;;;-1.76;100.00;101288.44;5010162;28;20021;-64
2024/01/19 00:09:51;;;;;;;17.73;10.23;;;;;;;-1.73;100.00;101292.78;5010167;28;20076;-64
2024/01/19 00:12:17;;;;;;;15.17;9.80;;;;;;;-1.75;100.00;101304.94;5010632;28;20481;-64
2024/01/19 00:14:42;;;;;;;13.60;10.43;;;;;;;-1.75;100.00;101305.81;5010490;28;20496;-64
2024/01/19 00:17:10;;;;;;;11.23;8.77;;;;;;;-1.76;100.00;101301.47;5009312;28;20045;-64
2024/01/19 00:19:35;;;;;;;14.20;9.70;;;;;;;-1.78;100.00;101300.59;5009522;28;20061;-64
2024/01/19 00:22:01;;;;;;;18.47;9.80;;;;;;;-1.83;100.00;101290.19;5008726;28;20425;-64
2024/01/19 00:24:26;;;;;;;15.43;10.63;;;;;;;-1.74;100.00;101304.91;5009886;28;20052;-64
2024/01/19 00:26:54;;;;;;;16.97;10.67;;;;;;;-1.84;99.53;101287.59;5009882;28;20412;-64
2024/01/19 00:29:19;;;;;;;15.57;9.87;;;;;;;-1.76;100.00;101303.22;5010436;28;20014;-64
2024/01/19 00:31:46;;;;;;;14.17;10.00;;;;;;;-2.00;100.00;101273.78;5008761;28;20658;-64
2024/01/19 00:34:16;;;;;;;21.40;10.30;;;;;;;-1.79;100.00;101313.63;5010640;28;20053;-64
2024/01/19 00:36:41;;;;;;;15.02;10.13;;;;;;;-1.92;100.00;101298.06;5010579;28;20022;-64
2024/01/19 00:39:07;;;;;;;18.90;10.27;;;;;;;-1.83;100.00;101318.00;5012740;28;20049;-64
2024/01/19 00:41:33;;;;;;;12.23;10.00;;;;;;;-1.87;100.00;101319.75;5013511;28;20057;-64
2024/01/19 00:43:59;;;;;;;16.30;10.03;;;;;;;-1.91;100.00;101310.22;5014110;28;20088;-64
2024/01/19 00:46:25;;;;;;;14.97;9.50;;;;;;;-1.89;100.00;101324.09;5012959;28;20404;-64
2024/01/19 00:48:50;;;;;;;11.73;9.63;;;;;;;-1.88;100.00;101323.25;5012796;28;20073;-64
2024/01/19 00:51:18;;;;;;;14.07;9.83;;;;;;;-1.90;100.00;101329.34;5014164;28;20034;-64
2024/01/19 00:53:44;;;;;;;14.53;10.57;;;;;;;-1.94;100.00;101325.88;5011253;28;20124;-64
2024/01/19 00:56:09;;;;;;;13.20;10.07;;;;;;;-1.95;100.00;101326.72;5013124;28;20117;-64
2024/01/19 00:58:40;;;;;;;16.83;10.23;;;;;;;-1.95;100.00;101329.34;5013719;28;20036;-64
2024/01/19 01:01:06;;;;;;;23.57;11.43;;;;;;;-2.06;100.00;101312.88;5013856;28;20026;-64
2024/01/19 01:03:31;;;;;;;13.10;8.87;;;;;;;-1.98;100.00;101318.06;5013819;28;20084;-64
2024/01/19 01:05:59;;;;;;;14.93;10.07;;;;;;;-1.99;100.00;101325.03;5012376;28;20052;-64
2024/01/19 01:08:28;;;;;;;22.70;9.87;;;;;;;-2.00;100.00;101332.84;5013015;28;20041;-64
2024/01/19 01:10:54;;;;;;;14.90;9.77;;;;;;;-2.00;100.00;101330.22;5010497;28;20026;-64
2024/01/19 01:13:20;;;;;;;15.57;9.77;;;;;;;-1.99;100.00;101326.78;5012135;28;20469;-64
2024/01/19 01:15:48;;;;;;;16.83;9.90;;;;;;;-2.06;100.00;101307.66;5012890;28;20396;-64
2024/01/19 01:18:16;;;;;;;12.90;8.90;;;;;;;-1.97;100.00;101331.09;5013694;28;20473;-64
2024/01/19 01:20:42;;;;;;;17.07;9.80;;;;;;;-1.99;100.00;101325.03;5013166;28;20022;-64
2024/01/19 01:23:08;;;;;;;11.10;9.30;;;;;;;-2.06;100.00;101321.59;5012008;28;20038;-64
2024/01/19 01:25:35;;;;;;;13.57;9.07;;;;;;;-2.00;100.00;101330.22;5012520;28;20103;-64
2024/01/19 01:28:02;;;;;;;10.30;9.27;;;;;;;-2.10;100.00;101317.25;5013217;28;20148;-64
2024/01/19 01:30:27;;;;;;;13.20;8.97;;;;;;;-2.01;100.00;101337.19;5011818;28;20064;-64
2024/01/19 01:32:53;;;;;;;10.70;8.70;;;;;;;-2.00;100.00;101340.66;5013374;28;20546;-64
2024/01/19 01:35:18;;;;;;;14.17;8.87;;;;;;;-2.02;100.00;101342.41;5013306;28;20474;-64
2024/01/19 01:37:44;;;;;;;13.47;8.30;;;;;;;-2.06;100.00;101329.41;5011469;28;20018;-64
2024/01/19 01:40:11;;;;;;;11.30;8.40;;;;;;;-2.00;100.00;101348.47;5011934;28;20534;-64
2024/01/19 01:42:37;;;;;;;11.33;8.27;;;;;;;-1.99;100.00;101358.03;5012836;28;20083;-64
2024/01/19 01:45:04;;;;;;;14.10;8.43;;;;;;;-2.00;100.00;101351.97;5012885;28;20108;-64
2024/01/19 01:47:31;;;;;;;11.73;8.80;;;;;;;-1.99;100.00;101358.03;5008848;28;20485;-64
2024/01/19 01:49:57;;;;;;;9.77;8.70;;;;;;;-2.11;100.00;101341.56;4997561;28;20853;-64
2024/01/19 01:52:23;;;;;;;10.83;9.07;;;;;;;-2.03;100.00;101358.91;5008668;28;20034;-64
2024/01/19 01:54:52;;;;;;;14.73;9.40;;;;;;;-2.09;100.00;101358.06;5010323;28;20037;-64
2024/01/19 01:57:20;;;;;;;17.17;8.83;;;;;;;-2.12;99.83;101358.09;5009507;28;20037;-64
2024/01/19 01:59:47;;;;;;;13.10;8.87;;;;;;;-2.16;99.57;101366.75;5012390;28;20088;-64
2024/01/19 02:02:12;;;;;;;10.33;8.37;;;;;;;-2.19;100.00;101371.13;5008996;28;20046;-64
2024/01/19 02:04:39;;;;;;;12.10;9.30;;;;;;;-2.23;100.00;101372.88;5012577;28;20083;-64
2024/01/19 02:07:04;;;;;;;12.30;9.13;;;;;;;-2.24;99.81;101372.84;5012277;28;20064;-64
2024/01/19 02:09:30;;;;;;;11.90;8.93;;;;;;;-2.26;100.00;101374.59;5008171;28;20459;-64
2024/01/19 02:11:57;;;;;;;14.70;8.67;;;;;;;-2.31;99.73;101375.47;5009218;28;20026;-64
2024/01/19 02:14:23;;;;;;;10.67;9.07;;;;;;;-2.37;99.65;101374.63;4998836;28;20038;-64
2024/01/19 02:16:48;;;;;;;11.17;7.87;;;;;;;-2.36;99.45;101382.41;4993549;28;20089;-64
2024/01/19 02:19:13;;;;;;;12.47;8.87;;;;;;;-2.35;99.42;101388.53;5002878;28;20125;-64
2024/01/19 02:21:39;;;;;;;10.50;8.47;;;;;;;-2.39;99.16;101390.25;4999944;28;20034;-64
2024/01/19 02:24:14;;;;;;;12.23;8.87;;;;;;;-2.45;99.05;101387.66;5006246;28;20559;-64
2024/01/19 02:26:40;;;;;;;16.00;8.63;;;;;;;-2.44;99.17;101394.63;5021707;28;20038;-64
2024/01/19 02:29:05;;;;;;;11.17;8.50;;;;;;;-2.53;98.95;101389.38;5003282;28;20067;-64
2024/01/19 02:31:31;;;;;;;14.43;8.33;;;;;;;-2.49;99.52;101408.50;4993703;28;20038;-64
2024/01/19 02:33:57;;;;;;;13.37;8.63;;;;;;;-2.56;99.39;101411.13;5040193;28;20408;-64
2024/01/19 02:36:22;;;;;;;21.70;8.60;;;;;;;-2.64;99.67;101399.81;4994390;28;20030;-64
2024/01/19 02:38:50;;;;;;;8.13;7.30;;;;;;;-2.67;100.00;101399.81;5003250;28;20022;-64
2024/01/19 02:41:15;;;;;;;7.67;6.87;;;;;;;-2.55;100.00;101422.38;5010665;28;20034;-64
2024/01/19 02:43:41;;;;;;;13.60;7.13;;;;;;;-2.55;100.00;101412.84;5008856;28;20072;-64
2024/01/19 02:46:09;;;;;;;7.13;6.43;;;;;;;-2.50;100.00;101420.63;5007014;28;20104;-64
2024/01/19 02:48:35;;;;;;;9.77;6.83;;;;;;;-2.52;100.00;101422.38;5010639;28;20427;-64
2024/01/19 02:51:00;;;;;;;10.93;7.33;;;;;;;-2.45;100.00;101426.72;5009234;28;20026;-64
2024/01/19 02:53:25;;;;;;;13.23;6.97;;;;;;;-2.42;100.00;101431.91;4999426;28;20425;-64
2024/01/19 02:55:51;;;;;;;7.93;6.60;;;;;;;-2.42;100.00;101431.91;4993713;28;20425;-64
2024/01/19 02:58:16;;;;;;;6.60;6.00;;;;;;;-2.43;100.00;101430.19;4991653;28;20022;-65
2024/01/19 03:00:41;;;;;;;8.30;5.87;;;;;;;-2.42;100.00;101434.53;4992567;28;20117;-64
2024/01/19 03:03:09;;;;;;;6.43;5.83;;;;;;;-2.36;100.00;101444.94;4992768;28;20398;-64
2024/01/19 03:05:34;;;;;;;7.63;6.10;;;;;;;-2.32;100.00;101430.19;4998833;28;20105;-64
2024/01/19 03:08:00;;;;;;;7.33;6.37;;;;;;;-2.20;100.00;101432.78;5005934;28;20117;-64
2024/01/19 03:10:25;;;;;;;8.97;6.57;;;;;;;-2.13;100.00;101436.25;4993124;28;20018;-64
2024/01/19 03:12:51;;;;;;;6.37;5.87;;;;;;;-2.12;100.00;101438.88;4997610;28;20061;-64
2024/01/19 03:15:16;;;;;;;7.50;6.60;;;;;;;-2.06;100.00;101440.56;5000134;28;20370;-64
2024/01/19 03:17:44;;;;;;;9.40;6.23;;;;;;;-2.04;100.00;101446.66;4992400;28;20030;-64
2024/01/19 03:20:10;;;;;;;9.07;6.80;;;;;;;-2.04;100.00;101440.56;5003245;28;20420;-64
2024/01/19 03:22:38;;;;;;;8.57;7.67;;;;;;;-1.98;100.00;101444.03;5010373;28;20075;-64
2024/01/19 03:25:04;;;;;;;11.50;7.30;;;;;;;-1.95;100.00;101445.75;5011025;28;20042;-64
2024/01/19 03:27:29;;;;;;;15.63;8.60;;;;;;;-1.90;100.00;101449.25;5010943;28;20029;-64
2024/01/19 03:29:56;;;;;;;15.47;8.13;;;;;;;-2.00;100.00;101437.06;5009734;28;20381;-64
2024/01/19 03:32:21;;;;;;;10.13;8.43;;;;;;;-2.07;100.00;101426.66;5010857;28;20104;-64
2024/01/19 03:34:49;;;;;;;12.03;7.07;;;;;;;-1.89;100.00;101451.81;5010902;28;20160;-64
2024/01/19 03:37:16;;;;;;;10.03;7.83;;;;;;;-1.85;100.00;101455.31;5009711;28;20514;-64
2024/01/19 03:39:42;;;;;;;12.20;8.47;;;;;;;-1.90;100.00;101444.03;5010707;28;20030;-64
2024/01/19 03:42:08;;;;;;;10.77;9.00;;;;;;;-1.89;100.00;101449.22;5010740;28;20594;-64
2024/01/19 03:44:33;;;;;;;12.07;9.10;;;;;;;-1.92;100.00;101438.81;5009766;28;20025;-64
2024/01/19 03:47:02;;;;;;;9.33;7.83;;;;;;;-1.88;100.00;101442.28;5010195;28;20056;-64
2024/01/19 03:49:27;;;;;;;7.63;6.90;;;;;;;-1.91;100.00;101447.47;5010624;28;20473;-64
2024/01/19 03:52:08;;;;;;;13.03;9.00;;;;;;;-1.79;100.00;101460.53;5010730;28;20056;-64
2024/01/19 03:54:34;;;;;;;11.87;8.80;;;;;;;-1.82;100.00;101463.13;5010789;28;20053;-64
2024/01/19 03:57:02;;;;;;;9.53;8.23;;;;;;;-1.80;100.00;101465.72;5008677;28;20496;-64
2024/01/19 03:59:28;;;;;;;14.53;10.00;;;;;;;-1.86;100.00;101458.78;5010431;28;20060;-64
2024/01/19 04:01:55;;;;;;;13.50;10.03;;;;;;;-1.86;100.00;101464.00;5008933;28;20077;-64
2024/01/19 04:04:22;;;;;;;11.67;8.57;;;;;;;-1.87;100.00;101460.53;5010529;28;20441;-64
2024/01/19 04:06:52;;;;;;;9.77;8.87;;;;;;;-1.90;100.00;101457.91;5006840;28;20049;-64
2024/01/19 04:09:17;;;;;;;10.95;9.48;;;;;;;-1.84;100.00;101465.72;5009553;28;20032;-64
2024/01/19 04:11:43;;;;;;;13.80;9.77;;;;;;;-1.91;100.00;101455.31;5012104;28;20053;-64
2024/01/19 04:14:10;;;;;;;12.43;10.30;;;;;;;-1.90;100.00;101473.56;5005026;28;20041;-64
2024/01/19 04:16:35;;;;;;;16.73;10.90;;;;;;;-1.93;100.00;101473.56;5011906;28;20112;-64
2024/01/19 04:19:02;;;;;;;11.47;10.20;;;;;;;-1.97;100.00;101461.44;5004863;28;20541;-64
2024/01/19 04:21:28;;;;;;;12.93;10.00;;;;;;;-1.95;100.00;101484.88;4997234;28;20037;-64
2024/01/19 04:23:54;;;;;;;15.80;10.67;;;;;;;-1.97;100.00;101481.38;5012480;28;20496;-64
2024/01/19 04:26:19;;;;;;;21.60;10.70;;;;;;;-1.98;100.00;101477.91;5011567;28;20037;-64
2024/01/19 04:28:45;;;;;;;14.47;10.80;;;;;;;-2.06;100.00;101474.44;5013250;28;20049;-64
2024/01/19 04:31:10;;;;;;;12.50;9.87;;;;;;;-2.00;100.00;101500.53;5014020;28;20030;-65
2024/01/19 04:33:36;;;;;;;15.07;10.60;;;;;;;-2.07;100.00;101493.56;5014747;28;20041;-64
2024/01/19 04:36:01;;;;;;;14.20;10.60;;;;;;;-2.05;100.00;101497.03;5014079;28;20065;-64
2024/01/19 04:38:26;;;;;;;13.63;10.77;;;;;;;-2.05;100.00;101504.88;5014305;28;20021;-64
2024/01/19 04:40:53;;;;;;;12.47;10.37;;;;;;;-2.08;100.00;101500.53;5013446;28;20488;-64
2024/01/19 04:43:18;;;;;;;14.57;11.40;;;;;;;-2.17;100.00;101494.44;5013006;28;20052;-64
2024/01/19 04:45:45;;;;;;;15.43;11.37;;;;;;;-2.06;100.00;101511.81;5012141;28;20477;-64
2024/01/19 04:48:10;;;;;;;14.70;9.87;;;;;;;-2.31;100.00;101476.22;5012860;28;20033;-64
2024/01/19 04:50:38;;;;;;;12.17;10.03;;;;;;;-2.11;100.00;101517.91;5014092;28;20025;-64
2024/01/19 04:53:04;;;;;;;10.63;9.30;;;;;;;-2.16;100.00;101511.81;5013723;28;20030;-64
2024/01/19 04:55:30;;;;;;;14.30;9.67;;;;;;;-2.11;100.00;101526.56;5013113;28;20940;-64
2024/01/19 04:57:55;;;;;;;12.93;10.37;;;;;;;-2.07;100.00;101533.50;5013638;28;20109;-64
2024/01/19 05:00:22;;;;;;;11.23;8.80;;;;;;;-2.18;100.00;101523.97;5012277;28;20029;-64
2024/01/19 05:02:48;;;;;;;14.50;11.33;;;;;;;-2.14;100.00;101528.31;5014066;28;20034;-64
2024/01/19 05:05:13;;;;;;;15.40;11.30;;;;;;;-2.24;100.00;101523.97;5013241;28;20084;-64
2024/01/19 05:07:39;;;;;;;16.33;10.37;;;;;;;-2.17;100.00;101537.00;5010891;28;20026;-64
2024/01/19 05:10:05;;;;;;;14.20;11.23;;;;;;;-2.17;100.00;101534.41;5013724;28;20080;-64
2024/01/19 05:12:31;;;;;;;14.93;10.80;;;;;;;-2.16;100.00;101535.25;5013094;28;20033;-64
2024/01/19 05:14:57;;;;;;;18.43;11.07;;;;;;;-2.19;100.00;101535.25;5012364;28;20029;-64
2024/01/19 05:17:22;;;;;;;11.80;9.63;;;;;;;-2.20;100.00;101544.81;5012036;28;20040;-64
2024/01/19 05:19:48;;;;;;;17.03;12.00;;;;;;;-2.20;100.00;101547.44;5012172;28;20032;-64
2024/01/19 05:22:16;;;;;;;14.23;11.67;;;;;;;-2.20;100.00;101546.56;5013066;28;20025;-64
2024/01/19 05:24:42;;;;;;;17.90;11.60;;;;;;;-2.23;100.00;101550.03;5012161;28;20100;-64
2024/01/19 05:27:07;;;;;;;12.67;10.50;;;;;;;-2.28;100.00;101555.22;5012073;28;20030;-64
2024/01/19 05:29:34;;;;;;;16.37;11.17;;;;;;;-2.34;100.00;101544.78;5011658;28;20493;-64
2024/01/19 05:32:01;;;;;;;16.53;10.43;;;;;;;-2.32;100.00;101555.22;5012125;28;20100;-64
2024/01/19 05:34:27;;;;;;;21.20;11.20;;;;;;;-2.38;100.00;101561.28;5013210;28;20492;-64
2024/01/19 05:36:53;;;;;;;17.47;10.87;;;;;;;-2.42;100.00;101558.66;5012815;28;20480;-64
2024/01/19 05:39:18;;;;;;;12.80;10.17;;;;;;;-2.38;100.00;101570.81;5012880;28;20038;-64
2024/01/19 05:41:43;;;;;;;17.50;11.63;;;;;;;-2.36;100.00;101582.97;5011332;28;20054;-64
2024/01/19 05:44:09;;;;;;;16.63;11.03;;;;;;;-2.37;100.00;101589.06;5012223;28;20045;-64
2024/01/19 05:46:37;;;;;;;12.47;10.93;;;;;;;-2.43;100.00;101589.06;5013324;28;20044;-64
2024/01/19 05:49:02;;;;;;;16.97;9.37;;;;;;;-2.40;100.00;101601.22;5009178;28;20033;-64
2024/01/19 05:51:30;;;;;;;11.63;10.47;;;;;;;-2.41;100.00;101602.06;5012541;28;20105;-64
2024/01/19 05:53:55;;;;;;;16.90;11.33;;;;;;;-2.46;100.00;101614.22;5011468;28;20494;-64
2024/01/19 05:56:26;;;;;;;13.07;9.53;;;;;;;-2.44;100.00;101625.50;5012469;28;20036;-64
2024/01/19 05:58:51;;;;;;;12.02;10.35;;;;;;;-2.44;100.00;101625.50;5012501;28;20030;-64
2024/01/19 06:01:17;;;;;;;14.17;11.03;;;;;;;-2.45;100.00;101624.63;5012590;28;20032;-64
2024/01/19 06:03:45;;;;;;;13.43;10.60;;;;;;;-2.42;100.00;101636.81;5011434;28;20061;-64
2024/01/19 06:06:10;;;;;;;16.47;11.13;;;;;;;-2.40;100.00;101635.09;5011333;28;20037;-64
2024/01/19 06:08:36;;;;;;;20.30;12.10;;;;;;;-2.42;100.00;101627.25;5011683;28;20396;-64
2024/01/19 06:11:01;;;;;;;13.53;11.07;;;;;;;-2.30;100.00;101640.31;5011862;28;20076;-64
2024/01/19 06:13:27;;;;;;;20.93;11.40;;;;;;;-2.32;100.00;101652.47;5011055;28;20037;-64
2024/01/19 06:15:52;;;;;;;16.13;11.40;;;;;;;-2.26;100.00;101655.94;5011387;28;20033;-64
2024/01/19 06:18:17;;;;;;;12.03;10.67;;;;;;;-2.21;100.00;101664.66;5012592;28;20096;-64
2024/01/19 06:20:45;;;;;;;19.43;10.63;;;;;;;-2.21;100.00;101659.44;5010818;28;20028;-64
2024/01/19 06:23:15;;;;;;;12.40;10.57;;;;;;;-2.18;100.00;101656.84;5011015;28;20061;-64
2024/01/19 06:25:41;;;;;;;11.30;10.13;;;;;;;-2.09;100.00;101670.78;5011427;28;20085;-65
2024/01/19 06:28:07;;;;;;;13.27;10.70;;;;;;;-2.09;100.00;101673.38;5012530;28;20041;-64
2024/01/19 06:30:35;;;;;;;16.10;10.93;;;;;;;-2.06;100.00;101690.75;5012096;28;20025;-64
2024/01/19 06:33:02;;;;;;;12.73;10.20;;;;;;;-2.04;100.00;101683.81;5010785;28;20737;-64
2024/01/19 06:35:27;;;;;;;10.90;9.50;;;;;;;-2.03;100.00;101687.28;5011447;28;20025;-64
2024/01/19 06:37:53;;;;;;;13.70;11.47;;;;;;;-2.06;100.00;101682.91;5011769;28;20030;-64
2024/01/19 06:40:18;;;;;;;11.93;10.27;;;;;;;-2.04;100.00;101695.97;5010586;28;20029;-64
2024/01/19 06:42:46;;;;;;;12.60;10.30;;;;;;;-2.12;100.00;101706.34;5010470;28;20528;-64
2024/01/19 06:45:15;;;;;;;16.77;10.30;;;;;;;-2.10;100.00;101720.28;5009319;28;20037;-64
2024/01/19 06:47:40;;;;;;;15.33;11.20;;;;;;;-2.14;100.00;101713.31;5011954;28;20057;-64
2024/01/19 06:50:06;;;;;;;11.57;10.30;;;;;;;-2.17;100.00;101714.19;5010540;28;20064;-64
2024/01/19 06:52:32;;;;;;;16.87;11.13;;;;;;;-2.18;100.00;101703.75;5011603;28;20061;-64
2024/01/19 06:54:59;;;;;;;11.87;10.47;;;;;;;-2.18;100.00;101707.22;5008817;28;20537;-64
2024/01/19 06:57:25;;;;;;;18.93;10.27;;;;;;;-2.31;100.00;101690.69;5010998;28;20025;-64
2024/01/19 06:59:53;;;;;;;12.30;9.40;;;;;;;-2.23;100.00;101714.16;5011618;28;20124;-64
2024/01/19 07:02:19;;;;;;;12.60;10.27;;;;;;;-2.26;100.00;101715.84;5010778;28;20101;-64
2024/01/19 07:04:48;;;;;;;16.43;11.87;;;;;;;-2.31;100.00;101721.94;5011349;28;20109;-64
2024/01/19 07:07:15;;;;;;;11.20;9.77;;;;;;;-2.30;100.00;101736.69;5010135;28;20034;-64
2024/01/19 07:09:41;;;;;;;10.87;9.67;;;;;;;-2.29;100.00;101734.97;5009744;28;20037;-64
2024/01/19 07:12:08;;;;;;;17.57;10.83;;;;;;;-2.33;100.00;101741.88;5009788;28;20036;-64
2024/01/19 07:14:34;;;;;;;11.27;10.13;;;;;;;-2.36;100.00;101738.41;5012028;28;20025;-64
2024/01/19 07:16:59;;;;;;;17.93;11.10;;;;;;;-2.38;100.00;101738.41;5011392;28;20522;-64
2024/01/19 07:19:25;;;;;;;14.47;10.73;;;;;;;-2.39;100.00;101746.22;5009613;28;20029;-64
2024/01/19 07:21:50;;;;;;;13.97;10.83;;;;;;;-2.42;100.00;101759.22;5009514;28;20030;-64
2024/01/19 07:24:16;;;;;;;15.03;11.03;;;;;;;-2.40;100.00;101765.31;4991251;28;20060;-64
2024/01/19 07:26:43;;;;;;;15.00;11.27;;;;;;;-2.45;100.00;101761.81;5010180;28;20037;-64
2024/01/19 07:29:09;;;;;;;16.77;9.77;;;;;;;-2.51;100.00;101754.84;5013990;28;20030;-64
2024/01/19 07:31:36;;;;;;;15.37;9.53;;;;;;;-2.52;100.00;101759.19;5009514;28;20028;-64
2024/01/19 07:34:01;;;;;;;12.37;9.87;;;;;;;-2.51;100.00;101763.50;5009429;28;20105;-64
2024/01/19 07:36:27;;;;;;;12.87;10.77;;;;;;;-2.53;100.00;101761.75;5008987;28;20118;-64
2024/01/19 07:38:53;;;;;;;16.70;10.50;;;;;;;-2.54;100.00;101768.69;5010126;28;20037;-64
2024/01/19 07:41:18;;;;;;;13.00;10.70;;;;;;;-2.54;100.00;101760.88;5008490;28;20034;-64
2024/01/19 07:43:44;;;;;;;11.87;9.97;;;;;;;-2.55;100.00;101764.38;5010715;28;20061;-64
2024/01/19 07:46:11;;;;;;;18.60;10.40;;;;;;;-2.55;100.00;101766.09;5007710;28;20056;-64
2024/01/19 07:48:37;;;;;;;13.60;10.47;;;;;;;-2.55;100.00;101773.91;4979696;28;20041;-64
2024/01/19 07:51:03;;;;;;;14.33;10.47;;;;;;;-2.53;100.00;101793.91;5008486;28;20033;-64
2024/01/19 07:53:28;;;;;;;15.43;9.97;;;;;;;-2.49;100.00;101789.56;5009318;28;20064;-64
2024/01/19 07:55:54;;;;;;;10.97;7.70;;;;;;;-2.52;100.00;101800.84;5009982;28;20029;-64
2024/01/19 07:58:19;;;;;;;13.40;11.10;;;;;;;-2.54;100.00;101799.09;5009265;28;20045;-64
2024/01/19 08:00:44;;;;;;;12.97;10.57;;;;;;;-2.57;100.00;101793.88;5010227;28;20032;-64
2024/01/19 08:03:10;;;;;;;13.50;10.47;;;;;;;-2.79;100.00;101762.50;5010576;28;20404;-64
2024/01/19 08:05:38;;;;;;;17.90;10.23;;;;;;;-2.47;100.00;101805.19;5004177;28;20029;-64
2024/01/19 08:08:03;;;;;;;13.73;10.13;;;;;;;-2.44;100.00;101813.91;5006777;28;20080;-64
2024/01/19 08:10:32;;;;;;;15.13;10.90;;;;;;;-2.49;100.00;101815.63;5011344;28;20244;-64
2024/01/19 08:12:59;;;;;;;12.23;10.83;;;;;;;-2.62;100.00;101804.25;5006876;28;20034;-64
2024/01/19 08:15:24;;;;;;;19.70;10.87;;;;;;;-2.50;100.00;101826.88;5008676;28;20107;-64
2024/01/19 08:17:50;;;;;;;16.57;10.80;;;;;;;-2.53;100.00;101822.56;5006961;28;20061;-64
2024/01/19 08:20:16;;;;;;;11.40;10.20;;;;;;;-2.48;100.00;101837.31;5008730;28;20551;-64
2024/01/19 08:22:41;;;;;;;12.40;10.40;;;;;;;-2.56;100.00;101832.94;5010417;28;20079;-64
2024/01/19 08:25:09;;;;;;;9.63;8.00;;;;;;;-2.47;100.00;101841.66;5012320;28;20389;-64
2024/01/19 08:27:35;;;;;;;13.50;11.20;;;;;;;-2.59;100.00;101829.44;5008310;28;20022;-64
2024/01/19 08:30:00;;;;;;;15.17;9.07;;;;;;;-2.44;100.00;101837.38;5010641;28;20040;-64
2024/01/19 08:32:26;;;;;;;13.63;10.93;;;;;;;-2.51;100.00;101851.19;5010606;28;20032;-64
2024/01/19 08:34:51;;;;;;;21.23;10.43;;;;;;;-2.48;100.00;101839.94;5010273;28;20053;-64
2024/01/19 08:37:17;;;;;;;14.10;10.07;;;;;;;-2.37;100.00;101846.09;5010046;28;20037;-64
2024/01/19 08:39:44;;;;;;;15.83;10.37;;;;;;;-2.49;100.00;101852.09;5010513;28;20465;-64
2024/01/19 08:42:09;;;;;;;15.10;10.93;;;;;;;-2.51;100.00;101848.59;5008741;28;20033;-64
2024/01/19 08:44:35;;;;;;;13.70;10.30;;;;;;;-2.54;100.00;101844.22;5009517;28;20392;-64
2024/01/19 08:47:00;;;;;;;13.70;9.87;;;;;;;-2.51;100.00;101849.44;5007846;28;20029;-64
2024/01/19 08:49:26;;;;;;;15.20;11.30;;;;;;;-2.46;100.00;101848.63;5008018;28;20109;-64
2024/01/19 08:51:51;;;;;;;17.80;10.47;;;;;;;-2.41;100.00;101860.81;5010075;28;20041;-64
2024/01/19 08:54:17;;;;;;;15.00;10.50;;;;;;;-2.40;100.00;101857.34;5008484;28;20121;-64
2024/01/19 08:56:46;;;;;;;15.80;9.87;;;;;;;-2.38;100.00;101842.63;5008767;28;20109;-64
2024/01/19 08:59:14;;;;;;;16.60;10.80;;;;;;;-2.22;100.00;101866.16;5013174;28;20053;-65
2024/01/19 09:01:39;;;;;;;12.77;11.47;;;;;;;-2.14;100.00;101867.06;5013156;28;20030;-64
2024/01/19 09:04:07;;;;;;;12.27;9.80;;;;;;;-2.08;100.00;101872.31;5013505;28;20092;-64
2024/01/19 09:06:32;;;;;;;15.83;9.33;;;;;;;-2.04;100.00;101875.78;5016935;28;20096;-64
2024/01/19 09:09:03;;;;;;;11.47;10.03;;;;;;;-2.02;100.00;101881.91;5012809;28;20144;-64
2024/01/19 09:11:31;;;;;;;16.30;10.33;;;;;;;-2.00;100.00;101885.38;5013408;28;20029;-64
2024/01/19 09:13:56;;;;;;;14.07;10.27;;;;;;;-1.97;100.00;101896.72;5012657;28;20354;-64
2024/01/19 09:16:22;;;;;;;10.67;9.57;;;;;;;-2.03;100.00;101873.19;5014001;28;20026;-64
2024/01/19 09:18:47;;;;;;;16.87;10.37;;;;;;;-1.95;100.00;101881.91;5013616;28;20017;-64
2024/01/19 09:21:17;;;;;;;14.93;10.40;;;;;;;-1.86;100.00;101900.22;5011442;28;20083;-64
2024/01/19 09:23:43;;;;;;;15.38;10.10;;;;;;;-1.80;100.00;101903.72;5011293;28;20030;-64
2024/01/19 09:26:20;;;;;;;12.40;10.53;;;;;;;-1.76;100.00;101914.19;5004147;28;20564;-64
2024/01/19 09:28:48;;;;;;;12.43;10.70;;;;;;;-1.69;100.00;101908.13;5013610;28;20389;-65
2024/01/19 09:31:15;;;;;;;12.67;10.27;;;;;;;-1.64;100.00;101921.19;5001770;28;20028;-65
2024/01/19 09:33:41;;;;;;;11.70;10.43;;;;;;;-1.60;100.00;101928.16;5005080;28;20057;-66
2024/01/19 09:36:06;;;;;;;12.07;10.53;;;;;;;-1.56;100.00;101929.03;5007840;28;20069;-64
2024/01/19 09:38:37;;;;;;;13.80;10.70;;;;;;;-1.48;100.00;101935.16;5010061;28;20039;-64
2024/01/19 09:41:24;;;;;;;14.30;11.00;;;;;;;-1.41;100.00;101935.22;5007566;28;20041;-64
2024/01/19 09:43:53;;;;;;;11.60;9.57;;;;;;;-1.29;100.00;101931.78;5009467;28;20026;-64
2024/01/19 09:46:25;;;;;;;13.93;11.27;;;;;;;-1.27;100.00;101943.06;5011854;28;20025;-64
2024/01/19 09:49:27;;;;;;;9.37;8.47;;;;;;;-1.21;100.00;101942.22;5013009;28;20025;-64
2024/01/19 09:51:57;;;;;;;20.57;10.77;;;;;;;-1.10;100.00;101940.50;5007983;28;20037;-64
2024/01/19 09:54:48;;;;;;;10.83;9.63;;;;;;;-0.92;100.00;101950.13;4997204;28;20026;-64
2024/01/19 09:57:14;;;;;;;19.33;11.23;;;;;;;-0.89;100.00;101946.66;5008682;28;20049;-64
2024/01/19 09:59:43;;;;;;;13.23;11.13;;;;;;;-0.80;100.00;101955.38;5013215;28;20402;-64
2024/01/19 10:02:12;;;;;;;15.40;11.97;;;;;;;-0.69;100.00;101961.47;5011308;28;20127;-64
2024/01/19 10:04:37;;;;;;;21.58;12.60;;;;;;;-0.56;100.00;101962.38;5005003;28;20518;-64
2024/01/19 10:07:03;;;;;;;11.43;10.00;;;;;;;-0.46;100.00;101963.25;5011453;28;20030;-64
2024/01/19 10:09:30;;;;;;;18.20;11.37;;;;;;;-0.27;100.00;101975.44;5010418;28;20026;-64
2024/01/19 10:11:55;;;;;;;13.83;11.17;;;;;;;-0.11;100.00;101981.56;5011232;28;20047;-64
2024/01/19 10:14:22;;;;;;;14.93;11.33;;;;;;;0.07;100.00;101982.41;5011246;28;20010;-64
2024/01/19 10:16:51;;;;;;;12.53;8.90;;;;;;;0.23;100.00;101971.03;5005803;28;20477;-64
2024/01/19 10:19:20;;;;;;;14.23;10.30;;;;;;;0.42;100.00;101964.03;5011899;28;20037;-64
2024/01/19 10:21:45;;;;;;;10.83;8.00;;;;;;;0.68;100.00;101964.78;5003905;28;20505;-63
2024/01/19 10:24:11;;;;;;;12.87;9.27;;;;;;;0.93;100.00;101964.66;5010522;28;20029;-65
2024/01/19 10:26:39;;;;;;;20.70;9.43;;;;;;;1.13;100.00;101973.28;5010997;28;20036;-63
2024/01/19 10:29:12;;;;;;;9.93;7.93;;;;;;;1.24;100.00;101983.72;5007792;28;20030;-63
2024/01/19 10:31:38;;;;;;;15.97;9.43;;;;;;;1.30;100.00;101974.94;5008102;28;20018;-63
2024/01/19 10:34:04;;;;;;;22.43;9.87;;;;;;;1.23;100.00;101974.09;5009787;28;20053;-63
2024/01/19 10:36:39;;;;;;;13.87;9.67;;;;;;;1.39;100.00;101984.50;5010964;28;20563;-63
2024/01/19 10:39:22;;;;;;;18.90;10.57;;;;;;;1.62;100.00;101992.19;5011023;28;20489;-63
2024/01/19 10:41:49;;;;;;;12.73;8.87;;;;;;;1.89;100.00;101989.34;5008969;28;20502;-63
2024/01/19 10:44:17;;;;;;;16.47;9.23;;;;;;;2.19;99.75;101985.56;5011567;28;20436;-63
2024/01/19 10:46:43;;;;;;;16.27;10.20;;;;;;;2.55;99.55;101986.03;5010520;28;20050;-63
2024/01/19 10:49:13;;;;;;;12.40;8.87;;;;;;;2.81;96.41;101977.84;5011047;28;20041;-63
2024/01/19 10:51:44;;;;;;;12.15;9.18;;;;;;;3.25;94.84;101988.66;5009411;28;20424;-63
2024/01/19 10:54:16;;;;;;;17.08;9.25;;;;;;;3.62;93.03;101991.63;5007923;28;20260;-63
2024/01/19 10:56:45;;;;;;;13.25;8.32;;;;;;;3.83;90.75;101972.84;5011132;28;20476;-63
2024/01/19 10:59:12;;;;;;;15.35;9.73;;;;;;;4.18;90.20;101995.06;5007161;28;20129;-63
2024/01/19 11:01:42;;;;;;;11.05;8.32;;;;;;;4.44;86.94;101996.31;5011963;28;20030;-63
2024/01/19 11:04:09;;;;;;;12.93;9.25;;;;;;;4.70;85.36;101990.53;5010677;28;20508;-63